Huvudsida
METAR-TAF:

METAR-TAF

Flygplatser :

Tartus flygplats

Tartu, Estland

latitud: 58-18N, longitud: 026-44E, höjd: 59 m

Aktuellt väderrapport

Denna rapport gjordes för 1 timme och 4 minuter sedan, klockan 15:50 UTC
Vind 6 kt från väst/nordväst
Temperatur 2°C
Fuktighet 93%
Tryck 1004 hPa
Sikt: 6000 m
lätt regn

METAR: EETU 251550Z AUTO 29006KT 6000 -RA VV017 02/01 Q1004

Tid: 18:54 (16:54 UTC)

Väderprognos

Denna rapport gjordes för 19 timmar och 54 minuter sedan, klockan 21:00 UTC
Prognos gäller från 24 kl. 22 UTC till 25 kl. 04 UTC
Vind 12 kt från väst/sydväst
Sikt 10 km eller mer
Inga moln under 1 500 m eller inga cumulonimbus
Sannolikhet 40% :
Temporärt
från 25 kl. 00 UTC till 25 kl. 04 UTC
Sikt: 2000 m
Brutna moln på en höjd av 300 ft
fuktdis

TAF: EETU 242100Z 2422/2504 25012KT CAVOK PROB40 TEMPO 2500/2504 2000 BR BKN003

Aktuella väderrapporter och prognoser från 4000 flygplatser (METAR- och TAF-rapporter).

De tillgängliga stationerna syns som gula och röda prickar på kartan.

För musen över prickarna för att se namnen på stationerna.

Klicka sedan för att få väderrapporter och prognoser.

För att ändra kartan: Klicka på de gröna knapparna med ett svart kors på för att zooma in; den gröna knappen med ett streck på för att zooma ut; eller på de gröna pilarna för angränsande kartor.


METAR-TAF: